Time;durP1;ratioP1;P1;durP2;ratioP2;P2;SDS_P1;SDS_P2;PMS_P1;PMS_P2;Temp;Humidity;BMP_temperature;BMP_pressure;BME280_temperature;BME280_humidity;BME280_pressure;Samples;Min_cycle;Max_cycle;Signal;HPM_P1;HPM_P2
2022/11/13 00:01:22;;;;;;;118.33;62.10;;;;;;;1.77;72.27;98709.31;1741328;82;25734;-75
2022/11/13 00:03:49;;;;;;;120.62;63.78;;;;;;;1.76;72.26;98712.95;1741377;82;25383;-73
2022/11/13 00:06:17;;;;;;;112.20;60.52;;;;;;;1.74;72.20;98710.04;1741191;82;26525;-73
2022/11/13 00:08:45;;;;;;;112.97;60.48;;;;;;;1.68;72.20;98702.09;1741601;82;25816;-72
2022/11/13 00:11:18;;;;;;;120.37;62.05;;;;;;;1.64;72.27;98702.45;1741098;82;28031;-72
2022/11/13 00:13:47;;;;;;;121.20;62.33;;;;;;;1.55;72.38;98702.71;1741353;82;25811;-73
2022/11/13 00:16:17;;;;;;;103.75;56.35;;;;;;;1.52;72.68;98705.61;1741404;81;25800;-72
2022/11/13 00:18:45;;;;;;;100.33;55.00;;;;;;;1.51;72.88;98698.59;1707592;83;26460;-72
2022/11/13 00:21:21;;;;;;;92.20;52.23;;;;;;;1.51;72.90;98699.92;1704347;84;25655;-74
2022/11/13 00:23:49;;;;;;;108.07;54.18;;;;;;;1.51;72.92;98699.08;1704478;84;27396;-73
2022/11/13 00:26:19;;;;;;;84.25;50.00;;;;;;;1.50;73.00;98698.23;1704459;84;25554;-73
2022/11/13 00:28:48;;;;;;;87.15;47.60;;;;;;;1.49;73.07;98695.20;1704545;84;25905;-72
2022/11/13 00:31:15;;;;;;;87.05;47.35;;;;;;;1.49;73.18;98685.89;1725805;82;25794;-72
2022/11/13 00:33:42;;;;;;;85.07;47.50;;;;;;;1.52;73.33;98689.64;1749733;82;25738;-71
2022/11/13 00:36:16;;;;;;;83.78;47.23;;;;;;;1.55;73.41;98685.89;1749501;82;27415;-74
2022/11/13 00:38:43;;;;;;;84.58;48.02;;;;;;;1.58;73.52;98685.62;1749420;82;25653;-73
2022/11/13 00:41:09;;;;;;;85.85;44.08;;;;;;;1.59;73.55;98693.48;1749594;82;25772;-72
2022/11/13 00:43:36;;;;;;;92.72;48.45;;;;;;;1.60;73.56;98687.20;1749651;82;25760;-72
2022/11/13 00:46:03;;;;;;;88.92;49.85;;;;;;;1.63;73.55;98688.77;1749283;82;25809;-72
2022/11/13 00:48:29;;;;;;;91.22;48.08;;;;;;;1.63;73.54;98690.95;1749522;82;27369;-75
2022/11/13 00:50:59;;;;;;;92.12;50.43;;;;;;;1.63;73.47;98692.28;1749476;82;25809;-72
2022/11/13 00:53:26;;;;;;;90.10;50.67;;;;;;;1.61;73.41;98684.90;1749584;82;25809;-73
2022/11/13 00:55:52;;;;;;;97.45;53.73;;;;;;;1.61;73.42;98679.58;1749514;82;25820;-72
2022/11/13 00:58:19;;;;;;;98.85;51.85;;;;;;;1.59;73.41;98676.19;1749587;82;25772;-74
2022/11/13 01:00:47;;;;;;;100.22;52.85;;;;;;;1.58;73.43;98678.48;1749466;82;27357;-72
2022/11/13 01:03:16;;;;;;;92.78;49.10;;;;;;;1.55;73.36;98668.11;1749375;82;25720;-72
2022/11/13 01:05:45;;;;;;;94.83;49.23;;;;;;;1.52;73.36;98672.34;1749444;82;25740;-71
2022/11/13 01:08:14;;;;;;;83.05;48.45;;;;;;;1.49;73.40;98663.27;1749441;82;25724;-72
2022/11/13 01:10:47;;;;;;;77.92;45.60;;;;;;;1.47;73.34;98661.22;1749502;82;25687;-71
2022/11/13 01:13:15;;;;;;;78.30;47.03;;;;;;;1.45;73.28;98659.16;1749250;82;27509;-72
2022/11/13 01:15:44;;;;;;;84.17;44.23;;;;;;;1.44;73.36;98656.16;1749192;82;25889;-72
2022/11/13 01:18:12;;;;;;;76.60;44.42;;;;;;;1.42;73.36;98651.45;1749293;80;25780;-72
2022/11/13 01:20:39;;;;;;;72.72;43.08;;;;;;;1.37;73.26;98650.95;1749381;82;25719;-74
2022/11/13 01:23:05;;;;;;;68.28;41.60;;;;;;;1.32;73.36;98645.18;1790791;80;25935;-72
2022/11/13 01:25:32;;;;;;;68.97;40.00;;;;;;;1.30;73.43;98643.13;1794048;80;28142;-73
2022/11/13 01:27:59;;;;;;;67.82;39.15;;;;;;;1.30;73.50;98645.78;1793944;79;25831;-72
2022/11/13 01:30:25;;;;;;;69.37;39.33;;;;;;;1.29;73.55;98641.42;1793962;80;25922;-73
2022/11/13 01:32:52;;;;;;;78.00;41.73;;;;;;;1.28;73.60;98646.39;1793969;80;25685;-73
2022/11/13 01:35:19;;;;;;;87.42;48.70;;;;;;;1.28;73.61;98646.39;1794268;79;25698;-73
2022/11/13 01:37:47;;;;;;;103.45;50.80;;;;;;;1.26;73.73;98647.83;1794119;80;27355;-73
2022/11/13 01:40:14;;;;;;;94.92;48.60;;;;;;;1.28;73.80;98649.05;1756397;81;25768;-72
2022/11/13 01:42:42;;;;;;;94.75;48.78;;;;;;;1.26;73.89;98641.19;1756479;81;25676;-72
2022/11/13 01:45:59;;;;;;;104.32;49.10;;;;;;;1.24;73.91;98644.92;1756480;81;25673;-72
2022/11/13 01:48:37;;;;;;;97.55;47.60;;;;;;;1.23;73.94;98646.74;1756538;81;25770;-72
2022/11/13 01:51:27;;;;;;;98.22;49.38;;;;;;;1.23;74.08;98640.58;1735747;82;26841;-72
2022/11/13 01:53:55;;;;;;;99.55;49.15;;;;;;;1.23;74.19;98640.58;1681858;85;25768;-71
2022/11/13 01:56:22;;;;;;;101.75;53.55;;;;;;;1.22;74.25;98642.88;1682002;85;26541;-71
2022/11/13 01:58:54;;;;;;;119.67;54.05;;;;;;;1.22;74.24;98640.21;1681750;85;25742;-72
2022/11/13 02:01:20;;;;;;;97.53;52.48;;;;;;;1.21;74.23;98637.22;1679285;85;25788;-72
2022/11/13 02:03:49;;;;;;;96.20;51.55;;;;;;;1.18;74.30;98640.12;1681758;85;27360;-72
2022/11/13 02:06:16;;;;;;;98.42;47.40;;;;;;;1.15;74.29;98638.54;1681665;85;25573;-74
2022/11/13 02:08:44;;;;;;;94.30;45.43;;;;;;;1.13;74.33;98635.63;1681895;85;25799;-74
2022/11/13 02:11:11;;;;;;;84.60;44.30;;;;;;;1.12;74.35;98640.59;1681801;85;26559;-72
2022/11/13 02:13:38;;;;;;;82.50;41.33;;;;;;;1.11;74.35;98636.23;1681694;85;25791;-72
2022/11/13 02:16:08;;;;;;;74.15;38.17;;;;;;;1.10;74.36;98639.38;1681518;85;27437;-72
2022/11/13 02:18:36;;;;;;;66.60;39.08;;;;;;;1.08;74.38;98635.53;1680523;85;25558;-74
2022/11/13 02:21:11;;;;;;;83.72;41.00;;;;;;;1.11;74.48;98641.07;1736700;82;25781;-72
2022/11/13 02:23:51;;;;;;;83.17;44.15;;;;;;;1.12;74.48;98633.94;1667831;85;25730;-72
2022/11/13 02:26:21;;;;;;;73.67;43.00;;;;;;;1.11;74.45;98640.23;1708915;83;25711;-72
2022/11/13 02:28:48;;;;;;;88.20;46.90;;;;;;;1.11;74.57;98634.42;1714342;83;28022;-72
2022/11/13 02:31:14;;;;;;;90.05;45.78;;;;;;;1.13;74.58;98640.95;1714176;83;25703;-72
2022/11/13 02:33:41;;;;;;;80.67;43.78;;;;;;;1.09;74.56;98638.53;1714269;83;26012;-72
2022/11/13 02:36:09;;;;;;;105.12;51.55;;;;;;;1.07;74.55;98639.64;1714359;83;25774;-72
2022/11/13 02:38:38;;;;;;;84.85;44.70;;;;;;;1.01;74.58;98635.64;1707466;83;25674;-73
2022/11/13 02:41:04;;;;;;;95.12;46.53;;;;;;;0.96;74.65;98631.67;1683883;85;27439;-71
2022/11/13 02:43:31;;;;;;;94.35;45.88;;;;;;;0.90;74.73;98636.13;1683889;85;25695;-73
2022/11/13 02:45:58;;;;;;;87.25;46.42;;;;;;;0.88;74.85;98640.23;1683957;85;25761;-72
2022/11/13 02:48:24;;;;;;;86.95;48.35;;;;;;;0.88;74.88;98638.06;1684024;85;25826;-74
2022/11/13 02:50:51;;;;;;;86.22;48.33;;;;;;;0.87;74.91;98638.55;1683955;85;25737;-72
2022/11/13 02:53:17;;;;;;;86.10;45.10;;;;;;;0.88;75.00;98636.25;1684166;85;27208;-71
2022/11/13 02:55:44;;;;;;;79.50;43.98;;;;;;;0.91;75.09;98638.67;1683917;85;25955;-71
2022/11/13 02:58:11;;;;;;;84.92;44.20;;;;;;;0.93;75.05;98640.73;1684013;85;25918;-72
2022/11/13 03:00:37;;;;;;;80.10;44.23;;;;;;;0.94;75.05;98642.42;1683762;85;25733;-72
2022/11/13 03:03:04;;;;;;;77.42;42.13;;;;;;;0.93;75.09;98640.73;1684029;85;26218;-71
2022/11/13 03:05:30;;;;;;;78.60;41.60;;;;;;;0.93;75.17;98644.72;1684055;85;27212;-72
2022/11/13 03:07:57;;;;;;;74.37;40.40;;;;;;;0.94;75.33;98641.58;1683900;83;25527;-72
2022/11/13 03:10:23;;;;;;;64.45;39.73;;;;;;;0.95;75.43;98640.14;1684118;85;25753;-75
2022/11/13 03:12:50;;;;;;;66.22;40.95;;;;;;;0.97;75.49;98644.82;1684043;85;26527;-74
2022/11/13 03:15:17;;;;;;;64.95;40.43;;;;;;;0.99;75.57;98648.20;1683825;85;25786;-72
2022/11/13 03:17:44;;;;;;;65.87;40.58;;;;;;;0.99;75.49;98647.36;1684013;85;27371;-73
2022/11/13 03:20:10;;;;;;;64.82;38.85;;;;;;;0.99;75.43;98644.22;1717667;81;25790;-72
2022/11/13 03:22:37;;;;;;;66.80;40.00;;;;;;;1.01;75.38;98642.30;1759337;81;25764;-74
2022/11/13 03:25:05;;;;;;;59.93;39.65;;;;;;;1.02;75.29;98641.33;1759441;81;25739;-72
2022/11/13 03:27:32;;;;;;;56.05;36.38;;;;;;;1.00;75.16;98637.09;1723181;83;25730;-72
2022/11/13 03:29:58;;;;;;;60.98;35.78;;;;;;;1.00;75.15;98641.92;1723169;83;27317;-72
2022/11/13 03:32:25;;;;;;;59.88;37.15;;;;;;;0.99;75.05;98646.03;1723162;83;25655;-72
2022/11/13 03:34:52;;;;;;;54.98;34.50;;;;;;;0.97;74.97;98645.30;1723205;83;25702;-72
2022/11/13 03:37:18;;;;;;;58.10;35.70;;;;;;;0.95;74.88;98648.11;1723142;83;25522;-73
2022/11/13 03:39:45;;;;;;;58.92;34.92;;;;;;;0.93;74.84;98651.37;1722868;83;25894;-72
2022/11/13 03:42:12;;;;;;;58.60;36.73;;;;;;;0.91;74.86;98643.14;1723192;83;27364;-74
2022/11/13 03:44:38;;;;;;;54.50;32.85;;;;;;;0.90;74.91;98640.97;1723104;83;25626;-72
2022/11/13 03:47:05;;;;;;;55.33;33.83;;;;;;;0.91;74.99;98647.13;1723270;83;25754;-72
2022/11/13 03:49:31;;;;;;;54.63;31.73;;;;;;;0.89;75.03;98645.92;1723108;83;25709;-74
2022/11/13 03:51:58;;;;;;;47.73;29.30;;;;;;;0.89;75.00;98636.61;1723199;83;25437;-72
2022/11/13 03:54:25;;;;;;;49.33;31.15;;;;;;;0.84;75.02;98640.14;1723336;83;28077;-73
2022/11/13 03:56:51;;;;;;;45.55;27.27;;;;;;;0.80;75.07;98641.34;1722849;83;25733;-72
2022/11/13 03:59:18;;;;;;;43.25;25.77;;;;;;;0.79;75.08;98631.67;1723013;83;25771;-72
2022/11/13 04:01:44;;;;;;;45.17;27.82;;;;;;;0.76;75.12;98638.54;1723220;83;25705;-74
2022/11/13 04:04:11;;;;;;;42.70;27.48;;;;;;;0.77;75.12;98642.89;1723129;83;25718;-72
2022/11/13 04:06:38;;;;;;;51.65;33.13;;;;;;;0.78;75.14;98636.62;1723039;83;27419;-72
2022/11/13 04:09:04;;;;;;;54.05;36.73;;;;;;;0.78;75.11;98640.60;1723100;83;25254;-72
2022/11/13 04:11:31;;;;;;;65.22;41.83;;;;;;;0.77;75.07;98641.56;1723195;83;25695;-72
2022/11/13 04:13:57;;;;;;;56.65;36.58;;;;;;;0.78;75.08;98640.60;1723257;83;26338;-72
2022/11/13 04:16:24;;;;;;;59.85;38.75;;;;;;;0.78;75.02;98647.73;1722943;83;25409;-72
2022/11/13 04:18:51;;;;;;;57.35;37.00;;;;;;;0.79;75.03;98650.75;1723350;83;27359;-72
2022/11/13 04:21:17;;;;;;;51.42;33.73;;;;;;;0.76;74.90;98647.84;1725596;83;25703;-72
2022/11/13 04:23:44;;;;;;;44.85;30.68;;;;;;;0.76;74.95;98644.34;1725956;83;25779;-72
2022/11/13 04:26:10;;;;;;;50.20;31.15;;;;;;;0.76;74.94;98639.88;1725937;83;26424;-72
2022/11/13 04:28:37;;;;;;;46.02;29.35;;;;;;;0.78;74.94;98644.59;1725943;83;25662;-74
2022/11/13 04:31:04;;;;;;;64.55;42.00;;;;;;;0.76;74.94;98644.34;1725882;83;27990;-74
2022/11/13 04:33:30;;;;;;;76.85;47.65;;;;;;;0.76;75.01;98644.34;1724280;83;25855;-72
2022/11/13 04:35:57;;;;;;;72.30;46.10;;;;;;;0.75;75.05;98636.84;1736968;82;25733;-74
2022/11/13 04:38:23;;;;;;;53.25;32.58;;;;;;;0.73;75.06;98645.42;1737048;82;25663;-71
2022/11/13 04:42:47;;;;;;;48.05;29.27;;;;;;;0.72;75.05;98639.77;1737035;82;25779;-72
2022/11/13 04:43:19;;;;;;;44.95;28.23;;;;;;;0.71;75.02;98636.75;1733259;82;27248;-72
2022/11/13 04:45:45;;;;;;;46.10;28.20;;;;;;;0.69;75.06;98637.34;1736809;82;25989;-72
2022/11/13 04:48:12;;;;;;;42.53;27.48;;;;;;;0.70;75.14;98642.55;1737042;82;25720;-72
2022/11/13 04:50:38;;;;;;;50.20;27.60;;;;;;;0.70;75.11;98637.71;1736831;82;25664;-72
2022/11/13 04:53:05;;;;;;;43.78;26.42;;;;;;;0.68;75.15;98642.30;1737019;82;25703;-72
2022/11/13 04:55:31;;;;;;;44.50;27.73;;;;;;;0.67;75.17;98637.94;1736930;82;27375;-72
2022/11/13 04:57:58;;;;;;;43.80;26.15;;;;;;;0.67;75.22;98642.77;1736848;82;25401;-72
2022/11/13 05:00:25;;;;;;;50.90;27.45;;;;;;;0.67;75.19;98641.92;1736890;82;25832;-74
2022/11/13 05:02:51;;;;;;;42.03;26.25;;;;;;;0.67;75.20;98637.94;1736662;82;25759;-73
2022/11/13 05:05:19;;;;;;;43.45;26.00;;;;;;;0.63;75.13;98639.13;1736615;82;43049;-72
2022/11/13 05:07:45;;;;;;;43.55;24.98;;;;;;;0.60;75.15;98636.73;1737173;82;27379;-72
2022/11/13 05:10:12;;;;;;;42.03;25.27;;;;;;;0.60;75.12;98628.77;1736731;82;25989;-74
2022/11/13 05:12:39;;;;;;;39.13;24.98;;;;;;;0.56;75.08;98625.49;1737225;82;25677;-71
2022/11/13 05:15:07;;;;;;;41.42;25.48;;;;;;;0.53;75.14;98634.17;1736921;82;25692;-74
2022/11/13 05:17:33;;;;;;;37.50;24.37;;;;;;;0.52;75.12;98625.84;1736860;82;25712;-72
2022/11/13 05:20:00;;;;;;;36.53;23.10;;;;;;;0.50;75.15;98633.08;1736737;82;27430;-74
2022/11/13 05:22:26;;;;;;;36.33;23.38;;;;;;;0.49;75.14;98634.03;1736653;82;25593;-72
2022/11/13 05:24:53;;;;;;;36.60;23.27;;;;;;;0.48;75.21;98632.38;1736628;82;25656;-72
2022/11/13 05:27:20;;;;;;;36.40;23.73;;;;;;;0.45;75.20;98638.77;1736574;82;26325;-74
2022/11/13 05:29:46;;;;;;;42.08;24.67;;;;;;;0.46;75.31;98643.59;1736608;82;25681;-73
2022/11/13 05:32:13;;;;;;;37.38;23.40;;;;;;;0.48;75.32;98643.85;1736769;82;27366;-72
2022/11/13 05:34:39;;;;;;;35.60;23.80;;;;;;;0.51;75.27;98648.05;1736541;82;25737;-72
2022/11/13 05:37:06;;;;;;;35.55;24.20;;;;;;;0.51;75.23;98643.59;1736623;82;25685;-72
2022/11/13 05:39:33;;;;;;;38.17;25.48;;;;;;;0.50;75.22;98641.05;1736834;82;25842;-72
2022/11/13 05:41:59;;;;;;;35.38;24.10;;;;;;;0.48;75.24;98654.47;1736515;82;25771;-74
2022/11/13 05:44:26;;;;;;;39.67;23.15;;;;;;;0.47;75.24;98651.94;1736824;82;28025;-71
2022/11/13 05:46:52;;;;;;;40.25;25.97;;;;;;;0.47;75.18;98656.77;1736475;82;25710;-71
2022/11/13 05:49:19;;;;;;;37.90;25.00;;;;;;;0.48;75.16;98658.94;1736669;82;25767;-73
2022/11/13 05:51:46;;;;;;;37.63;24.40;;;;;;;0.49;75.24;98656.62;1736587;82;25683;-72
2022/11/13 05:54:12;;;;;;;35.33;25.37;;;;;;;0.49;75.24;98652.64;1736794;82;25693;-72
2022/11/13 05:56:39;;;;;;;39.90;25.88;;;;;;;0.43;75.19;98651.31;1736589;82;27349;-72
2022/11/13 05:59:06;;;;;;;36.13;24.37;;;;;;;0.43;75.22;98654.45;1736564;82;25656;-72
2022/11/13 06:01:38;;;;;;;42.83;25.88;;;;;;;0.39;75.25;98652.50;1736655;82;25736;-74
2022/11/13 06:04:08;;;;;;;40.95;26.15;;;;;;;0.33;75.23;98652.98;1736319;82;25757;-73
2022/11/13 06:06:34;;;;;;;39.05;26.42;;;;;;;0.30;75.30;98643.91;1736316;82;25964;-72
2022/11/13 06:09:04;;;;;;;41.83;27.13;;;;;;;0.29;75.41;98644.87;1736640;82;27313;-72
2022/11/13 06:11:31;;;;;;;41.92;26.52;;;;;;;0.31;75.38;98646.94;1736633;82;25728;-72
2022/11/13 06:13:59;;;;;;;43.00;27.65;;;;;;;0.31;75.47;98645.13;1736549;82;25768;-72
2022/11/13 06:16:35;;;;;;;43.10;27.10;;;;;;;0.34;75.52;98646.23;1736559;82;26488;-71
2022/11/13 06:19:06;;;;;;;37.73;26.07;;;;;;;0.36;75.52;98644.28;1733767;82;25712;-71
2022/11/13 06:21:37;;;;;;;42.67;27.02;;;;;;;0.39;75.54;98654.31;1736517;82;27401;-72
2022/11/13 06:24:05;;;;;;;42.20;27.70;;;;;;;0.41;75.55;98653.72;1734886;82;25834;-71
2022/11/13 06:26:34;;;;;;;42.20;26.30;;;;;;;0.43;75.61;98648.66;1748305;82;25629;-74
2022/11/13 06:29:03;;;;;;;44.20;27.02;;;;;;;0.45;75.67;98646.73;1748185;81;25699;-71
2022/11/13 06:31:33;;;;;;;40.33;25.75;;;;;;;0.48;75.67;98644.33;1748228;81;25723;-74
2022/11/13 06:34:01;;;;;;;40.50;25.80;;;;;;;0.51;75.66;98648.05;1755953;81;27416;-73
2022/11/13 06:36:36;;;;;;;49.67;27.22;;;;;;;0.52;75.66;98641.78;1756013;81;25832;-74
2022/11/13 06:39:06;;;;;;;50.23;30.57;;;;;;;0.52;75.70;98641.78;1755922;81;25698;-71
2022/11/13 06:41:33;;;;;;;48.83;29.67;;;;;;;0.54;75.83;98647.83;1756038;81;25784;-72
2022/11/13 06:44:00;;;;;;;50.43;30.52;;;;;;;0.56;75.91;98645.91;1756266;81;25615;-72
2022/11/13 06:46:28;;;;;;;52.98;33.42;;;;;;;0.59;75.89;98643.86;1755854;81;27557;-71
2022/11/13 06:48:56;;;;;;;54.60;33.45;;;;;;;0.61;75.88;98638.40;1755865;81;25898;-72
2022/11/13 06:51:27;;;;;;;70.15;37.98;;;;;;;0.63;75.87;98643.13;1755922;81;25707;-72
2022/11/13 06:53:53;;;;;;;65.40;37.53;;;;;;;0.63;76.04;98637.80;1666146;85;25935;-73
2022/11/13 06:56:21;;;;;;;79.67;43.10;;;;;;;0.66;76.17;98637.58;1639064;86;25822;-74
2022/11/13 06:58:47;;;;;;;84.47;42.45;;;;;;;0.68;76.36;98636.98;1666258;86;27378;-72
2022/11/13 07:01:21;;;;;;;69.53;40.10;;;;;;;0.73;76.48;98639.63;1680266;85;25903;-72
2022/11/13 07:03:47;;;;;;;76.72;40.33;;;;;;;0.80;76.62;98639.16;1666414;86;25896;-72
2022/11/13 07:06:21;;;;;;;79.53;41.70;;;;;;;0.85;76.70;98632.98;1680190;85;25687;-72
2022/11/13 07:08:48;;;;;;;76.62;41.25;;;;;;;0.89;76.76;98629.13;1680359;85;25481;-72
2022/11/13 07:11:18;;;;;;;70.42;40.98;;;;;;;0.93;76.82;98620.80;1680336;85;28278;-72
2022/11/13 07:13:46;;;;;;;72.53;41.10;;;;;;;1.00;76.83;98623.31;1680225;85;25808;-72
2022/11/13 07:16:15;;;;;;;71.82;40.45;;;;;;;1.04;76.93;98618.12;1680403;85;25721;-72
2022/11/13 07:18:42;;;;;;;72.85;44.00;;;;;;;1.11;76.95;98617.14;1680222;85;25476;-72
2022/11/13 07:21:11;;;;;;;63.63;41.18;;;;;;;1.15;76.98;98617.27;1678774;85;25728;-72
2022/11/13 07:23:41;;;;;;;61.25;40.28;;;;;;;1.22;76.99;98620.27;1678142;85;27498;-74
2022/11/13 07:26:07;;;;;;;62.08;39.25;;;;;;;1.27;77.06;98616.28;1678097;85;25481;-72
2022/11/13 07:28:34;;;;;;;60.65;38.70;;;;;;;1.34;77.10;98608.14;1678096;85;25808;-74
2022/11/13 07:31:01;;;;;;;55.88;36.08;;;;;;;1.40;77.22;98602.83;1678118;85;26465;-73
2022/11/13 07:33:27;;;;;;;55.20;36.05;;;;;;;1.50;77.31;98606.42;1678051;85;25721;-72
2022/11/13 07:35:56;;;;;;;55.45;35.73;;;;;;;1.58;77.29;98606.63;1678445;85;26824;-72
2022/11/13 07:38:23;;;;;;;54.75;37.55;;;;;;;1.66;77.40;98606.02;1678158;85;25530;-72
2022/11/13 07:40:50;;;;;;;58.55;37.45;;;;;;;1.73;77.43;98613.36;1678348;85;25749;-73
2022/11/13 07:43:17;;;;;;;55.55;38.23;;;;;;;1.81;77.46;98614.89;1678246;85;25693;-73
2022/11/13 07:45:44;;;;;;;56.98;40.03;;;;;;;1.91;77.54;98615.00;1678219;85;25544;-74
2022/11/13 07:48:10;;;;;;;56.83;38.98;;;;;;;2.03;77.52;98607.80;1678272;85;27723;-74
2022/11/13 07:50:38;;;;;;;56.58;37.98;;;;;;;2.11;77.51;98610.17;1698893;83;25736;-72
2022/11/13 07:53:07;;;;;;;50.05;35.48;;;;;;;2.22;77.57;98610.59;1739646;82;25744;-72
2022/11/13 07:55:35;;;;;;;50.83;34.53;;;;;;;2.33;77.58;98613.67;1739572;82;26476;-72
2022/11/13 07:58:03;;;;;;;55.65;38.48;;;;;;;2.44;77.58;98621.11;1747849;82;25750;-72
2022/11/13 08:00:33;;;;;;;56.53;37.20;;;;;;;2.59;77.63;98616.78;1747829;82;28504;-72
2022/11/13 08:03:16;;;;;;;55.43;36.85;;;;;;;2.72;77.59;98618.75;1747459;82;26370;-72
2022/11/13 08:05:43;;;;;;;55.98;35.80;;;;;;;2.86;77.56;98607.73;1747960;82;25752;-74
2022/11/13 08:08:13;;;;;;;54.77;36.98;;;;;;;3.00;77.55;98606.53;1747950;82;26293;-73
2022/11/13 08:10:41;;;;;;;55.20;38.02;;;;;;;3.17;77.52;98616.54;1747758;82;25727;-72
2022/11/13 08:13:09;;;;;;;55.08;37.48;;;;;;;3.33;77.53;98620.04;1747809;82;27374;-71
2022/11/13 08:15:36;;;;;;;56.95;39.05;;;;;;;3.50;77.55;98616.20;1747656;82;25743;-73
2022/11/13 08:18:04;;;;;;;63.65;41.35;;;;;;;3.68;77.56;98619.05;1747814;82;25748;-71
2022/11/13 08:20:31;;;;;;;63.95;41.28;;;;;;;3.86;77.51;98614.73;1747702;82;25754;-72
2022/11/13 08:23:00;;;;;;;54.80;36.75;;;;;;;4.01;77.41;98617.80;1747516;82;25922;-72
2022/11/13 08:25:29;;;;;;;49.00;32.60;;;;;;;4.10;77.30;98615.64;1747757;82;27445;-73
2022/11/13 08:27:57;;;;;;;44.05;30.55;;;;;;;4.25;77.32;98609.34;1747703;82;25792;-74
2022/11/13 08:30:26;;;;;;;44.83;29.27;;;;;;;4.39;77.39;98606.73;1747791;82;25222;-72
2022/11/13 08:32:53;;;;;;;42.15;29.05;;;;;;;4.61;77.55;98607.24;1747719;82;25728;-72
2022/11/13 08:35:20;;;;;;;41.45;30.15;;;;;;;4.84;77.66;98601.54;1747907;82;25799;-73
2022/11/13 08:37:47;;;;;;;46.73;29.70;;;;;;;5.09;77.71;98603.55;1748015;82;27471;-72
2022/11/13 08:40:14;;;;;;;47.40;29.07;;;;;;;5.31;77.54;98608.52;1747785;82;25456;-72
2022/11/13 08:42:40;;;;;;;47.62;29.35;;;;;;;5.53;77.28;98601.93;1747864;82;25238;-74
2022/11/13 08:45:09;;;;;;;44.48;29.42;;;;;;;5.76;77.09;98610.38;1747739;82;25745;-74
2022/11/13 08:47:36;;;;;;;45.83;29.02;;;;;;;6.01;77.02;98610.99;1747648;82;25767;-75
2022/11/13 08:50:05;;;;;;;46.75;31.05;;;;;;;6.27;76.82;98608.88;1747681;82;27608;-72
2022/11/13 08:52:31;;;;;;;44.23;30.70;;;;;;;6.50;76.63;98612.25;1747724;82;25681;-72
2022/11/13 08:54:59;;;;;;;41.28;29.37;;;;;;;6.71;76.22;98610.54;1747889;82;25657;-75
2022/11/13 08:57:26;;;;;;;45.43;30.65;;;;;;;6.90;76.02;98599.23;1747783;82;25761;-75
2022/11/13 08:59:52;;;;;;;45.78;30.85;;;;;;;7.09;75.52;98601.20;1719508;83;25945;-75
2022/11/13 09:02:19;;;;;;;45.98;32.65;;;;;;;7.27;75.20;98605.13;1719220;83;27422;-76
2022/11/13 09:04:46;;;;;;;46.00;32.08;;;;;;;7.47;75.09;98601.70;1719566;83;25285;-75
2022/11/13 09:07:12;;;;;;;46.68;29.80;;;;;;;7.64;74.84;98603.41;1720195;83;25893;-76
2022/11/13 09:09:39;;;;;;;40.95;28.70;;;;;;;7.83;74.63;98598.27;1720224;83;25659;-74
2022/11/13 09:12:05;;;;;;;42.45;28.77;;;;;;;8.02;74.33;98598.45;1720236;83;25807;-75
2022/11/13 09:14:32;;;;;;;40.28;28.25;;;;;;;8.15;74.01;98596.95;1720281;83;28287;-74
2022/11/13 09:16:58;;;;;;;35.73;24.63;;;;;;;8.35;73.90;98588.58;1720118;83;25593;-74
2022/11/13 09:19:26;;;;;;;37.75;25.27;;;;;;;8.58;73.59;98587.72;1720200;83;25293;-74
2022/11/13 09:21:53;;;;;;;35.08;23.98;;;;;;;8.80;73.28;98582.66;1719932;83;25736;-74
2022/11/13 09:24:20;;;;;;;32.93;24.25;;;;;;;9.00;72.87;98578.56;1726897;82;25952;-74
2022/11/13 09:26:46;;;;;;;35.25;24.57;;;;;;;9.20;72.77;98573.59;1753476;81;27353;-75
2022/11/13 09:29:13;;;;;;;35.95;24.65;;;;;;;9.41;72.85;98568.48;1726758;83;25724;-74
2022/11/13 09:31:40;;;;;;;33.30;22.95;;;;;;;9.65;72.61;98572.39;1753519;81;25762;-74
2022/11/13 09:34:07;;;;;;;31.15;22.80;;;;;;;9.93;72.26;98559.73;1726903;83;25745;-75
2022/11/13 09:36:34;;;;;;;31.73;22.90;;;;;;;10.21;71.73;98558.72;1753439;81;25742;-76
2022/11/13 09:39:03;;;;;;;31.93;21.42;;;;;;;10.47;71.39;98557.82;1753275;81;28077;-74
2022/11/13 09:41:34;;;;;;;31.40;21.12;;;;;;;10.74;70.99;98556.39;1753366;81;25485;-74
2022/11/13 09:44:27;;;;;;;35.33;22.67;;;;;;;11.06;70.83;98550.63;1692316;84;25793;-74
2022/11/13 09:47:05;;;;;;;31.93;21.70;;;;;;;11.45;70.45;98535.95;1692265;84;25787;-77
2022/11/13 09:49:42;;;;;;;34.27;23.70;;;;;;;11.98;69.49;98535.20;1676599;85;25708;-75
2022/11/13 09:52:20;;;;;;;34.50;23.62;;;;;;;12.38;68.83;98538.61;1674261;85;27482;-74
2022/11/13 09:54:47;;;;;;;38.70;23.10;;;;;;;12.75;68.25;98529.83;1678115;85;25514;-74
2022/11/13 09:57:49;;;;;;;32.80;22.10;;;;;;;12.98;67.40;98533.95;1678402;85;25790;-77
2022/11/13 10:00:19;;;;;;;32.30;21.07;;;;;;;13.01;66.84;98532.72;1678625;85;25856;-74
2022/11/13 10:03:33;;;;;;;27.70;18.62;;;;;;;13.09;66.71;98531.70;1678325;85;25948;-75
2022/11/13 10:06:35;;;;;;;22.58;15.40;;;;;;;13.28;66.21;98523.70;1674882;85;27408;-74
2022/11/13 10:09:34;;;;;;;20.32;13.22;;;;;;;13.59;65.92;98526.45;1678420;85;25785;-74
2022/11/13 10:12:07;;;;;;;23.05;14.78;;;;;;;13.96;65.10;98526.45;1674937;85;25707;-75
2022/11/13 10:14:41;;;;;;;17.62;12.23;;;;;;;14.25;64.43;98520.63;1678563;85;25799;-75
2022/11/13 10:17:40;;;;;;;22.05;15.05;;;;;;;14.45;62.90;98520.69;1678303;85;25772;-73
2022/11/13 10:20:15;;;;;;;24.90;17.10;;;;;;;14.53;62.65;98513.67;1678364;85;27391;-73
2022/11/13 10:23:18;;;;;;;22.25;16.62;;;;;;;14.87;63.02;98506.31;1665495;85;25821;-72
2022/11/13 10:25:45;;;;;;;22.95;16.05;;;;;;;15.23;62.39;98497.13;1622095;87;25881;-72
2022/11/13 10:28:21;;;;;;;27.00;16.57;;;;;;;15.50;61.94;98500.05;1668825;83;25784;-75
2022/11/13 10:30:49;;;;;;;19.80;15.08;;;;;;;15.77;61.42;98493.16;1622099;87;25869;-74
2022/11/13 10:33:25;;;;;;;22.32;15.18;;;;;;;16.05;60.75;98493.62;1621624;87;28196;-73
2022/11/13 10:36:02;;;;;;;17.23;14.25;;;;;;;16.32;60.09;98493.39;1622122;87;25826;-74
2022/11/13 10:38:50;;;;;;;20.17;14.47;;;;;;;16.57;59.58;98492.87;1597522;88;25836;-73
2022/11/13 10:41:20;;;;;;;18.12;13.32;;;;;;;16.80;59.04;98487.65;1525888;92;26593;-73
2022/11/13 10:44:00;;;;;;;18.90;14.15;;;;;;;17.06;58.07;98485.70;1516036;94;25768;-74
2022/11/13 10:46:29;;;;;;;20.40;14.00;;;;;;;17.07;56.69;98477.30;1515631;94;27519;-73
2022/11/13 10:48:57;;;;;;;20.20;13.80;;;;;;;17.10;56.97;98476.02;1546115;92;25936;-74
2022/11/13 10:51:28;;;;;;;22.17;14.28;;;;;;;17.04;55.85;98476.38;1540503;92;25866;-73
2022/11/13 10:53:57;;;;;;;19.23;13.88;;;;;;;17.02;56.29;98472.24;1522406;94;26844;-75
2022/11/13 10:56:36;;;;;;;16.17;12.45;;;;;;;17.04;55.54;98473.66;1544282;92;25887;-73
2022/11/13 10:59:15;;;;;;;17.82;13.05;;;;;;;17.15;55.68;98470.70;1546638;92;28234;-73
2022/11/13 11:01:45;;;;;;;18.23;13.18;;;;;;;17.32;55.71;98465.47;1544166;92;25794;-73
2022/11/13 11:04:20;;;;;;;18.42;12.47;;;;;;;17.39;54.62;98471.14;1546830;92;25844;-73
2022/11/13 11:06:47;;;;;;;19.45;13.98;;;;;;;17.44;54.90;98461.75;1542069;92;25851;-76
2022/11/13 11:09:19;;;;;;;16.27;12.47;;;;;;;17.64;54.77;98462.34;1550323;91;25891;-73
2022/11/13 11:15:00;;;;;;;16.65;12.37;;;;;;;17.91;54.32;98452.41;1547881;91;25761;-74
2022/11/13 11:18:02;;;;;;;14.45;10.75;;;;;;;18.12;53.88;98450.50;1558290;91;25380;-73
2022/11/13 11:20:53;;;;;;;18.92;11.20;;;;;;;18.28;52.78;98449.83;1530386;91;25824;-72
2022/11/13 11:23:48;;;;;;;14.63;10.43;;;;;;;18.39;53.09;98444.61;1542711;92;25967;-75
2022/11/13 11:26:25;;;;;;;14.95;11.38;;;;;;;18.49;51.94;98439.37;1543009;92;27585;-74
2022/11/13 11:29:12;;;;;;;13.90;11.35;;;;;;;18.54;52.09;98428.04;1585884;89;25839;-75
2022/11/13 11:31:55;;;;;;;15.08;11.28;;;;;;;18.75;51.81;98433.47;1505754;94;25409;-74
2022/11/13 11:34:33;;;;;;;14.45;11.15;;;;;;;18.94;50.97;98427.34;1500868;95;25849;-75
2022/11/13 11:37:15;;;;;;;15.80;11.48;;;;;;;19.02;50.88;98423.69;1506801;91;25616;-73
2022/11/13 11:39:53;;;;;;;17.32;11.33;;;;;;;19.17;50.50;98425.92;1565636;91;27591;-73